Time;durP1;ratioP1;P1;durP2;ratioP2;P2;SDS_P1;SDS_P2;PMS_P1;PMS_P2;Temp;Humidity;BMP_temperature;BMP_pressure;BME280_temperature;BME280_humidity;BME280_pressure;Samples;Min_cycle;Max_cycle;Signal;HPM_P1;HPM_P2
2021/01/02 00:00:07;;;;;;;29.42;15.77;;;;;;;1.92;86.20;98441.47;5058046;28;20212;-81
2021/01/02 00:02:42;;;;;;;22.65;15.93;;;;;;;1.85;86.37;98447.09;5071491;28;20214;-81
2021/01/02 00:05:13;;;;;;;25.52;15.27;;;;;;;1.86;86.50;98444.38;5051269;28;20223;-79
2021/01/02 00:07:44;;;;;;;21.80;13.23;;;;;;;1.92;86.67;98446.78;5065255;28;20227;-80
2021/01/02 00:10:17;;;;;;;23.88;14.73;;;;;;;1.95;86.11;98449.31;5090516;28;20223;-77
2021/01/02 00:13:13;;;;;;;29.60;16.00;;;;;;;1.97;86.14;98449.22;5118356;28;20275;-79
2021/01/02 00:16:08;;;;;;;32.47;17.63;;;;;;;1.95;85.86;98451.97;5081683;28;20219;-80
2021/01/02 00:18:59;;;;;;;25.92;15.80;;;;;;;2.08;85.37;98447.88;5068081;28;20212;-79
2021/01/02 00:21:27;;;;;;;27.52;16.92;;;;;;;2.09;84.95;98454.88;5072217;28;20220;-80
2021/01/02 00:24:23;;;;;;;29.15;16.38;;;;;;;2.02;85.24;98448.13;5079028;28;20204;-80
2021/01/02 00:27:07;;;;;;;30.58;18.73;;;;;;;1.96;85.14;98456.34;5077430;28;20201;-79
2021/01/02 00:29:55;;;;;;;34.03;19.25;;;;;;;1.93;85.41;98448.50;5118269;28;20306;-78
2021/01/02 00:32:48;;;;;;;30.10;17.13;;;;;;;1.97;85.35;98450.09;5097065;28;20217;-80
2021/01/02 00:35:19;;;;;;;29.98;16.90;;;;;;;1.96;85.21;98453.69;5099608;28;20227;-81
2021/01/02 00:37:57;;;;;;;26.50;17.73;;;;;;;1.89;85.26;98446.91;5098122;28;20225;-80
2021/01/02 00:40:25;;;;;;;24.10;16.40;;;;;;;2.04;84.81;98448.91;5104790;27;20287;-81
2021/01/02 00:42:51;;;;;;;24.92;16.90;;;;;;;1.98;84.88;98443.88;5112486;28;20278;-79
2021/01/02 00:45:24;;;;;;;25.30;15.00;;;;;;;1.95;84.95;98451.97;5078671;28;20249;-82
2021/01/02 00:47:52;;;;;;;24.52;14.15;;;;;;;2.11;85.01;98452.16;5081994;28;20245;-80
2021/01/02 00:50:24;;;;;;;25.83;15.90;;;;;;;2.13;84.81;98458.25;5108559;28;20259;-77
2021/01/02 00:52:50;;;;;;;27.25;15.88;;;;;;;2.12;84.52;98465.34;5108958;28;20207;-77
2021/01/02 00:55:25;;;;;;;23.13;14.70;;;;;;;2.09;84.52;98460.19;5113747;28;20200;-76
2021/01/02 00:58:11;;;;;;;24.45;14.88;;;;;;;2.12;84.40;98460.03;5113430;28;20214;-78
2021/01/02 01:00:43;;;;;;;25.00;15.63;;;;;;;2.11;84.35;98458.31;5108385;28;20253;-78
2021/01/02 01:03:50;;;;;;;27.15;15.38;;;;;;;2.03;84.20;98460.44;5087247;28;20224;-79
2021/01/02 01:06:17;;;;;;;29.77;16.50;;;;;;;1.93;84.65;98464.41;5104988;28;20279;-81
2021/01/02 01:08:44;;;;;;;32.67;19.52;;;;;;;1.89;84.68;98467.25;5097605;28;20282;-79
2021/01/02 01:11:13;;;;;;;31.52;19.63;;;;;;;1.76;85.43;98458.97;5081378;28;20208;-79
2021/01/02 01:13:41;;;;;;;28.10;17.50;;;;;;;2.12;84.35;98464.50;5099127;28;20210;-80
2021/01/02 01:16:08;;;;;;;31.20;17.45;;;;;;;2.04;84.64;98464.81;5098315;28;22315;-80
2021/01/02 01:18:46;;;;;;;27.70;17.70;;;;;;;2.02;85.33;98464.03;5089586;28;20265;-81
2021/01/02 01:21:15;;;;;;;28.42;16.42;;;;;;;2.23;84.20;98476.38;5071018;28;20195;-81
2021/01/02 01:24:22;;;;;;;27.20;14.98;;;;;;;2.15;84.49;98470.53;5066475;28;20401;-82
2021/01/02 01:27:15;;;;;;;26.25;15.63;;;;;;;2.07;84.78;98480.56;5036060;28;20231;-79
2021/01/02 01:30:03;;;;;;;26.65;14.75;;;;;;;2.02;84.80;98474.63;5095719;28;20225;-79
2021/01/02 01:32:29;;;;;;;28.13;16.90;;;;;;;2.01;85.21;98472.88;5081215;28;20215;-81
2021/01/02 01:35:00;;;;;;;30.35;17.77;;;;;;;2.10;85.03;98471.63;5086584;28;20311;-81
2021/01/02 01:37:32;;;;;;;27.70;16.60;;;;;;;2.11;84.92;98474.22;5086677;28;20215;-82
2021/01/02 01:39:59;;;;;;;28.27;17.30;;;;;;;2.12;84.97;98469.81;5074523;28;20228;-85
2021/01/02 01:42:40;;;;;;;27.20;16.00;;;;;;;2.12;84.52;98472.47;5066131;28;20280;-83
2021/01/02 01:46:08;;;;;;;27.88;16.40;;;;;;;2.16;84.92;98469.59;5066394;28;20570;-82
2021/01/02 01:49:06;;;;;;;29.80;16.85;;;;;;;2.19;84.25;98474.75;5078962;28;20227;-84
2021/01/02 01:51:55;;;;;;;28.52;16.02;;;;;;;2.19;84.45;98472.09;5064717;28;20225;-85
2021/01/02 01:54:50;;;;;;;31.70;16.95;;;;;;;2.07;84.67;98471.78;5067359;28;20215;-84
2021/01/02 01:57:27;;;;;;;30.70;17.50;;;;;;;2.12;84.27;98475.09;5079294;27;20228;-82
2021/01/02 01:59:57;;;;;;;34.45;18.10;;;;;;;2.26;84.47;98468.25;5062684;28;20204;-85
2021/01/02 02:02:47;;;;;;;27.65;16.73;;;;;;;2.19;84.33;98477.41;5092048;28;20256;-82
2021/01/02 02:05:21;;;;;;;27.92;16.27;;;;;;;2.14;84.60;98474.13;5084914;28;20225;-82
2021/01/02 02:08:09;;;;;;;30.80;18.77;;;;;;;2.07;85.20;98472.63;5095026;28;20223;-83
2021/01/02 02:10:47;;;;;;;34.95;19.00;;;;;;;2.16;85.50;98480.22;5071221;28;20219;-80
2021/01/02 02:13:19;;;;;;;32.05;17.90;;;;;;;2.18;85.16;98470.38;5088817;28;20219;-83
2021/01/02 02:15:45;;;;;;;31.92;17.63;;;;;;;2.31;85.38;98471.59;5069627;28;20227;-83
2021/01/02 02:18:17;;;;;;;30.75;17.65;;;;;;;2.34;85.02;98475.91;5065729;28;20326;-84
2021/01/02 02:20:51;;;;;;;28.30;17.02;;;;;;;2.39;84.54;98484.53;5088815;28;20207;-85
2021/01/02 02:23:23;;;;;;;29.13;16.63;;;;;;;2.48;84.30;98473.50;5091610;28;20250;-82
2021/01/02 02:26:17;;;;;;;29.70;17.45;;;;;;;2.45;84.39;98484.25;5086459;28;20231;-86
2021/01/02 02:28:52;;;;;;;28.70;17.55;;;;;;;2.43;84.15;98479.00;5078706;28;20229;-85
2021/01/02 02:31:23;;;;;;;35.55;17.92;;;;;;;2.65;83.46;98473.63;5095054;28;20241;-79
2021/01/02 02:33:55;;;;;;;29.85;16.70;;;;;;;2.52;83.82;98475.09;5091189;28;20657;-85
2021/01/02 02:36:23;;;;;;;31.15;18.30;;;;;;;2.51;83.51;98471.56;5089187;28;20261;-82
2021/01/02 02:38:49;;;;;;;28.05;16.98;;;;;;;2.51;83.41;98474.22;5104424;28;20202;-82
2021/01/02 02:41:18;;;;;;;29.02;16.83;;;;;;;2.54;83.53;98471.44;5079632;28;20243;-84
2021/01/02 02:43:48;;;;;;;25.63;15.80;;;;;;;2.51;83.52;98474.22;5095931;28;20208;-81
2021/01/02 02:46:16;;;;;;;28.33;17.50;;;;;;;2.40;83.66;98471.19;5091110;28;20215;-84
2021/01/02 02:48:46;;;;;;;28.65;16.52;;;;;;;2.35;83.92;98474.97;5103639;28;20219;-82
2021/01/02 02:51:15;;;;;;;30.70;18.27;;;;;;;2.37;83.83;98471.31;5086850;28;21450;-82
2021/01/02 02:53:42;;;;;;;37.53;20.40;;;;;;;2.33;84.01;98476.84;5096396;28;20205;-84
2021/01/02 02:56:08;;;;;;;34.33;19.65;;;;;;;2.43;83.70;98475.47;5102565;28;20223;-84
2021/01/02 02:58:34;;;;;;;29.10;17.23;;;;;;;2.36;83.83;98479.34;5073039;28;20277;-84
2021/01/02 03:01:01;;;;;;;26.92;16.17;;;;;;;2.49;82.93;98478.75;5093348;28;20231;-85
2021/01/02 03:03:27;;;;;;;26.17;15.52;;;;;;;2.41;83.02;98483.53;5082347;28;20223;-83
2021/01/02 03:05:54;;;;;;;26.63;16.60;;;;;;;2.42;83.37;98482.59;5098892;28;20373;-84
2021/01/02 03:08:20;;;;;;;28.35;16.20;;;;;;;2.45;83.75;98484.25;5090948;28;20225;-82
2021/01/02 03:10:47;;;;;;;30.83;15.80;;;;;;;2.45;83.49;98481.59;5098849;28;20218;-84
2021/01/02 03:13:14;;;;;;;25.58;14.80;;;;;;;2.43;83.22;98484.31;5095080;28;20219;-84
2021/01/02 03:15:43;;;;;;;26.75;15.65;;;;;;;2.41;83.80;98487.97;5092545;28;20239;-83
2021/01/02 03:18:12;;;;;;;27.52;15.45;;;;;;;2.44;84.00;98482.53;5077679;28;20289;-81
2021/01/02 03:20:38;;;;;;;24.33;15.70;;;;;;;2.44;83.74;98478.06;5111134;28;20206;-82
2021/01/02 03:23:05;;;;;;;29.98;16.70;;;;;;;2.42;83.67;98477.28;5057435;28;20247;-85
2021/01/02 03:25:31;;;;;;;34.03;21.80;;;;;;;2.42;83.78;98479.94;5092875;28;20265;-80
2021/01/02 03:27:58;;;;;;;30.35;18.40;;;;;;;2.47;83.64;98483.28;5095481;28;20287;-82
2021/01/02 03:30:30;;;;;;;26.25;16.08;;;;;;;2.52;83.80;98483.91;5064099;28;20673;-81
2021/01/02 03:32:57;;;;;;;25.85;15.18;;;;;;;2.54;83.74;98479.41;5082155;28;20294;-85
2021/01/02 03:35:24;;;;;;;22.88;14.65;;;;;;;2.46;83.54;98484.22;5077312;28;20203;-87
2021/01/02 03:37:50;;;;;;;30.67;16.48;;;;;;;2.44;83.58;98485.19;5071397;28;20227;-85
2021/01/02 03:40:17;;;;;;;33.75;20.75;;;;;;;2.65;82.44;98482.44;5107601;28;20205;-82
2021/01/02 03:42:46;;;;;;;30.35;18.38;;;;;;;2.77;81.67;98476.59;5098084;28;20618;-86
2021/01/02 03:45:15;;;;;;;28.15;15.90;;;;;;;2.54;82.74;98478.53;5075027;28;20237;-86
2021/01/02 03:47:45;;;;;;;25.73;15.30;;;;;;;2.40;83.38;98487.13;5100829;28;20211;-85
2021/01/02 03:50:13;;;;;;;26.98;15.07;;;;;;;2.36;83.60;98480.22;5088984;28;20218;-87
2021/01/02 03:52:39;;;;;;;29.63;17.15;;;;;;;2.29;83.99;98486.72;5075683;28;20224;-85
2021/01/02 03:55:10;;;;;;;29.23;17.27;;;;;;;2.29;84.02;98489.38;5084467;28;20223;-87
2021/01/02 03:57:37;;;;;;;30.13;17.80;;;;;;;2.21;84.16;98486.19;5087110;28;20683;-86
2021/01/02 04:00:08;;;;;;;25.35;16.35;;;;;;;2.19;84.23;98492.47;5076902;28;20201;-84
2021/01/02 04:02:35;;;;;;;29.45;17.38;;;;;;;2.15;84.77;98486.44;5096953;28;20207;-84
2021/01/02 04:05:02;;;;;;;28.80;17.52;;;;;;;2.20;85.05;98489.75;5099553;28;20725;-87
2021/01/02 04:07:29;;;;;;;30.20;18.10;;;;;;;2.25;84.99;98492.22;5089420;27;20340;-86
2021/01/02 04:09:59;;;;;;;36.35;20.98;;;;;;;2.27;84.70;98487.69;5061054;28;20215;-86
2021/01/02 04:12:26;;;;;;;43.72;24.50;;;;;;;2.25;84.44;98482.47;5098403;27;20220;-85
2021/01/02 04:14:55;;;;;;;40.80;21.42;;;;;;;2.32;84.54;98483.91;5057776;28;20264;-86
2021/01/02 04:17:22;;;;;;;32.67;19.38;;;;;;;2.39;84.22;98479.22;5055773;28;20682;-85
2021/01/02 04:19:51;;;;;;;29.67;17.10;;;;;;;2.35;84.41;98478.50;5003893;28;20320;-85
2021/01/02 04:22:32;;;;;;;31.80;19.50;;;;;;;2.81;82.35;98480.84;5046536;28;20295;-83
2021/01/02 04:25:25;;;;;;;27.25;16.25;;;;;;;2.93;81.46;98482.94;5036605;28;20219;-85
2021/01/02 04:27:51;;;;;;;32.83;18.42;;;;;;;2.90;81.80;98476.91;5067174;28;20212;-84
2021/01/02 04:30:19;;;;;;;27.45;16.45;;;;;;;2.84;81.80;98477.19;5058684;28;20219;-84
2021/01/02 04:33:00;;;;;;;24.88;15.70;;;;;;;2.81;81.55;98479.97;5086954;28;20200;-82
2021/01/02 04:35:26;;;;;;;25.45;14.35;;;;;;;2.89;81.48;98480.50;5066145;28;20188;-83
2021/01/02 04:37:55;;;;;;;24.23;14.20;;;;;;;2.88;81.76;98479.63;5060801;28;20208;-85
2021/01/02 04:40:25;;;;;;;26.83;14.68;;;;;;;2.76;82.05;98474.84;5064564;28;20287;-84
2021/01/02 04:42:52;;;;;;;24.40;14.88;;;;;;;2.70;82.23;98479.59;5080771;28;20655;-85
2021/01/02 04:45:20;;;;;;;27.80;14.93;;;;;;;2.64;82.37;98477.22;5073332;28;20219;-85
2021/01/02 04:47:49;;;;;;;26.23;15.30;;;;;;;2.65;82.52;98479.78;5058107;28;20625;-84
2021/01/02 04:50:21;;;;;;;26.27;14.73;;;;;;;2.54;82.51;98475.88;5049926;28;20223;-86
2021/01/02 04:52:52;;;;;;;27.58;15.30;;;;;;;2.61;82.57;98482.63;5085920;28;20230;-83
2021/01/02 04:55:22;;;;;;;23.30;14.48;;;;;;;2.78;82.58;98477.47;5079134;28;20233;-83
2021/01/02 04:57:49;;;;;;;26.98;14.88;;;;;;;2.66;82.21;98484.19;5066770;28;20350;-87
2021/01/02 05:00:17;;;;;;;21.60;13.65;;;;;;;2.66;82.46;98478.00;5088421;28;20238;-86
2021/01/02 05:02:44;;;;;;;24.98;14.52;;;;;;;2.65;82.59;98481.59;5088442;28;20204;-84
2021/01/02 05:05:13;;;;;;;22.25;13.75;;;;;;;2.52;82.68;98481.25;5065821;28;20215;-83
2021/01/02 05:07:42;;;;;;;26.95;15.38;;;;;;;2.51;82.89;98482.19;5052417;28;20227;-84
2021/01/02 05:10:09;;;;;;;28.67;15.38;;;;;;;2.52;83.03;98485.72;5074275;28;20216;-83
2021/01/02 05:12:36;;;;;;;30.70;18.20;;;;;;;2.54;83.10;98484.72;5061459;28;20215;-85
2021/01/02 05:15:11;;;;;;;27.80;16.33;;;;;;;2.63;83.47;98484.31;5054448;28;20229;-84
2021/01/02 05:17:40;;;;;;;28.98;18.17;;;;;;;2.62;83.06;98477.28;5112082;28;20211;-84
2021/01/02 05:20:12;;;;;;;30.10;17.08;;;;;;;2.70;82.90;98477.78;5072095;28;20230;-84
2021/01/02 05:22:41;;;;;;;28.42;15.70;;;;;;;2.63;82.76;98484.31;5080985;28;20212;-84
2021/01/02 05:25:12;;;;;;;34.00;17.92;;;;;;;2.58;83.16;98480.97;5074207;28;20218;-81
2021/01/02 05:27:46;;;;;;;29.20;17.42;;;;;;;2.66;82.34;98481.53;5078149;28;20278;-85
2021/01/02 05:30:17;;;;;;;30.42;17.23;;;;;;;2.73;82.48;98484.75;5087888;28;20245;-86
2021/01/02 05:33:00;;;;;;;27.85;16.40;;;;;;;2.80;82.17;98487.06;5057803;28;20615;-82
2021/01/02 05:35:44;;;;;;;32.10;16.77;;;;;;;2.84;81.93;98487.81;5060237;28;20306;-86
2021/01/02 05:38:22;;;;;;;28.05;17.00;;;;;;;2.88;81.76;98492.06;5070911;28;20219;-83
2021/01/02 05:40:59;;;;;;;30.70;18.27;;;;;;;3.19;79.44;98489.69;5080642;28;20226;-85
2021/01/02 05:43:28;;;;;;;31.27;17.50;;;;;;;3.16;79.70;98497.81;5061358;28;20233;-83
2021/01/02 05:45:55;;;;;;;33.92;18.95;;;;;;;3.14;79.51;98494.38;5080668;28;20596;-85
2021/01/02 05:48:25;;;;;;;28.00;17.08;;;;;;;3.08;79.37;98492.84;5053102;28;20308;-86
2021/01/02 05:50:57;;;;;;;35.88;19.58;;;;;;;3.13;79.67;98492.63;5055087;28;20209;-82
2021/01/02 05:53:31;;;;;;;33.17;18.92;;;;;;;2.80;80.25;98494.16;5086057;28;20285;-81
2021/01/02 05:56:01;;;;;;;35.53;19.08;;;;;;;2.86;81.06;98492.13;5087277;28;20205;-82
2021/01/02 05:58:38;;;;;;;30.98;19.05;;;;;;;2.98;80.50;98501.31;5081089;28;20220;-81
2021/01/02 06:01:17;;;;;;;33.72;18.63;;;;;;;2.96;79.75;98509.34;5082551;28;20219;-82
2021/01/02 06:03:49;;;;;;;29.08;17.88;;;;;;;2.93;80.32;98504.19;5066310;28;20220;-82
2021/01/02 06:06:24;;;;;;;35.70;18.65;;;;;;;2.96;80.08;98503.19;5075221;28;20207;-82
2021/01/02 06:08:51;;;;;;;33.20;18.60;;;;;;;2.87;80.72;98503.56;5080922;28;20215;-84
2021/01/02 06:11:21;;;;;;;32.22;19.15;;;;;;;2.81;80.90;98504.72;5062849;28;20219;-82
2021/01/02 06:13:50;;;;;;;32.53;17.55;;;;;;;2.79;80.84;98495.97;5071538;28;20315;-84
2021/01/02 06:16:18;;;;;;;34.95;19.70;;;;;;;2.76;81.00;98506.72;5045770;28;20224;-84
2021/01/02 06:18:46;;;;;;;37.88;19.95;;;;;;;2.70;81.36;98501.69;5060003;28;20236;-84
2021/01/02 06:21:15;;;;;;;36.75;19.98;;;;;;;2.75;81.58;98507.66;5039823;28;22533;-84
2021/01/02 06:23:44;;;;;;;34.08;19.75;;;;;;;2.73;81.63;98503.34;5069900;28;20211;-85
2021/01/02 06:26:15;;;;;;;37.05;18.15;;;;;;;2.80;81.23;98508.31;5028804;28;20224;-84
2021/01/02 06:28:45;;;;;;;32.72;17.92;;;;;;;2.76;81.25;98512.03;5046886;28;20644;-84
2021/01/02 06:31:13;;;;;;;37.92;21.15;;;;;;;2.65;81.54;98518.75;5047031;28;20736;-85
2021/01/02 06:33:48;;;;;;;38.67;20.10;;;;;;;2.67;81.77;98523.06;5070384;28;20220;-84
2021/01/02 06:36:34;;;;;;;29.85;17.30;;;;;;;2.45;82.31;98522.25;5051852;28;20292;-82
2021/01/02 06:39:23;;;;;;;36.78;17.77;;;;;;;2.34;82.61;98524.53;5039259;28;20310;-86
2021/01/02 06:41:54;;;;;;;33.13;17.77;;;;;;;2.30;83.03;98517.59;5062437;28;20199;-83
2021/01/02 06:44:50;;;;;;;36.70;18.05;;;;;;;2.39;82.83;98517.19;5052438;28;20220;-84
2021/01/02 06:47:21;;;;;;;37.55;18.88;;;;;;;2.40;82.69;98523.38;5044485;28;20236;-84
2021/01/02 06:49:51;;;;;;;35.65;18.17;;;;;;;2.39;83.19;98522.50;5084487;28;20243;-85
2021/01/02 06:52:31;;;;;;;32.80;18.40;;;;;;;2.52;83.42;98520.22;5039053;28;20212;-85
2021/01/02 06:55:19;;;;;;;31.90;17.05;;;;;;;2.73;81.97;98522.78;5066242;28;20655;-80
2021/01/02 06:57:46;;;;;;;31.23;18.38;;;;;;;2.72;81.83;98530.81;5048831;28;20228;-85
2021/01/02 07:00:23;;;;;;;35.08;17.42;;;;;;;2.74;81.08;98527.16;5034672;28;20651;-86
2021/01/02 07:02:49;;;;;;;39.90;17.45;;;;;;;2.57;81.61;98532.34;5060783;28;20204;-83
2021/01/02 07:05:47;;;;;;;37.05;18.80;;;;;;;2.64;81.12;98536.44;5071337;28;20220;-86
2021/01/02 07:08:43;;;;;;;35.63;19.08;;;;;;;2.72;81.60;98537.00;5063691;28;20251;-85
2021/01/02 07:11:34;;;;;;;33.13;17.20;;;;;;;2.78;81.22;98542.03;5067360;28;20236;-85
2021/01/02 07:14:08;;;;;;;30.73;15.63;;;;;;;2.76;81.01;98538.56;5071400;28;20226;-87
2021/01/02 07:17:01;;;;;;;35.50;18.60;;;;;;;2.86;81.02;98545.22;5060341;28;20212;-84
2021/01/02 07:19:35;;;;;;;32.25;18.65;;;;;;;2.77;81.25;98539.44;5060854;28;20207;-84
2021/01/02 07:22:17;;;;;;;33.25;18.33;;;;;;;2.85;81.90;98540.84;5084542;28;20200;-83
2021/01/02 07:24:57;;;;;;;31.63;18.40;;;;;;;2.86;82.22;98531.94;5066953;28;20220;-82
2021/01/02 07:27:30;;;;;;;35.83;17.70;;;;;;;2.98;80.65;98533.16;5065185;28;20255;-81
2021/01/02 07:30:02;;;;;;;35.00;18.33;;;;;;;3.06;80.15;98531.91;5050059;28;20235;-86
2021/01/02 07:32:30;;;;;;;29.65;16.88;;;;;;;2.95;80.80;98544.78;5057251;28;20209;-86
2021/01/02 07:35:02;;;;;;;32.55;17.83;;;;;;;3.06;80.21;98529.25;5062196;28;20243;-86
2021/01/02 07:37:35;;;;;;;32.78;18.45;;;;;;;3.17;80.07;98532.28;5055538;28;20310;-85
2021/01/02 07:40:10;;;;;;;33.90;19.75;;;;;;;3.13;79.66;98530.69;5078156;28;20282;-87
2021/01/02 07:42:38;;;;;;;30.92;18.00;;;;;;;2.82;81.08;98530.34;5070353;28;20229;-86
2021/01/02 07:45:12;;;;;;;31.85;17.20;;;;;;;2.78;81.28;98536.72;5058090;28;20215;-87
2021/01/02 07:47:46;;;;;;;31.88;18.35;;;;;;;2.82;81.67;98540.94;5045236;28;20255;-85
2021/01/02 07:50:14;;;;;;;35.78;20.05;;;;;;;2.96;81.26;98535.88;5057953;28;20224;-86
2021/01/02 07:52:52;;;;;;;32.97;19.35;;;;;;;2.82;81.36;98543.59;5068744;28;20226;-85
2021/01/02 07:55:23;;;;;;;30.85;18.25;;;;;;;3.15;80.32;98547.41;5061564;28;20681;-86
2021/01/02 07:57:50;;;;;;;31.05;16.88;;;;;;;3.22;79.95;98538.22;5047079;28;20270;-86
2021/01/02 08:00:17;;;;;;;32.28;16.77;;;;;;;3.28;79.50;98543.25;5070882;28;20235;-84
2021/01/02 08:02:43;;;;;;;30.92;16.63;;;;;;;3.26;79.89;98542.47;5065957;28;20259;-87
2021/01/02 08:05:11;;;;;;;34.03;18.35;;;;;;;3.37;79.68;98536.66;5056495;28;20258;-85
2021/01/02 08:07:40;;;;;;;29.13;16.10;;;;;;;3.45;79.53;98538.03;5077463;28;20713;-87
2021/01/02 08:10:12;;;;;;;32.38;17.13;;;;;;;3.44;79.12;98543.41;5093796;28;20224;-85
2021/01/02 08:12:47;;;;;;;31.38;18.25;;;;;;;3.22;79.75;98543.53;5064803;28;20209;-86
2021/01/02 08:15:25;;;;;;;30.75;18.23;;;;;;;3.10;80.02;98544.13;5064759;28;20472;-84
2021/01/02 08:18:00;;;;;;;29.38;17.90;;;;;;;3.15;80.16;98547.41;5068074;28;20200;-83
2021/01/02 08:20:27;;;;;;;35.53;20.38;;;;;;;3.13;80.27;98549.28;5064834;28;20227;-84
2021/01/02 08:23:33;;;;;;;29.40;17.15;;;;;;;3.32;80.13;98554.59;5062013;28;20238;-83
2021/01/02 08:26:05;;;;;;;36.42;19.20;;;;;;;3.13;80.22;98554.59;5026946;28;20260;-84
2021/01/02 08:28:36;;;;;;;30.50;17.55;;;;;;;3.50;79.19;98559.94;5051529;28;20234;-86
2021/01/02 08:31:03;;;;;;;27.75;17.27;;;;;;;3.53;78.42;98558.94;5062070;28;20320;-87
2021/01/02 08:33:31;;;;;;;31.73;17.25;;;;;;;3.68;77.89;98553.78;5067580;28;20311;-84
2021/01/02 08:35:57;;;;;;;30.73;17.30;;;;;;;3.63;78.02;98560.22;5043713;28;20200;-83
2021/01/02 08:38:28;;;;;;;31.42;18.52;;;;;;;3.62;77.66;98553.19;5035789;28;20729;-84
2021/01/02 08:40:54;;;;;;;28.13;16.08;;;;;;;3.54;77.63;98550.88;4991040;28;20235;-87
2021/01/02 08:43:22;;;;;;;28.00;16.00;;;;;;;3.47;77.74;98557.41;5064550;28;20235;-84
2021/01/02 08:46:09;;;;;;;32.25;17.65;;;;;;;3.46;78.29;98558.34;5060190;28;20289;-85
2021/01/02 08:48:45;;;;;;;31.73;16.42;;;;;;;3.40;78.50;98558.63;5033842;28;20246;-86
2021/01/02 08:51:25;;;;;;;27.02;16.33;;;;;;;3.35;78.24;98555.31;5021904;28;20224;-87
2021/01/02 08:53:54;;;;;;;26.23;17.05;;;;;;;3.45;78.14;98563.72;5082265;28;20354;-86
2021/01/02 08:56:30;;;;;;;30.92;17.38;;;;;;;3.45;78.81;98566.38;5074553;28;20219;-87
2021/01/02 08:58:59;;;;;;;31.02;16.88;;;;;;;3.57;78.67;98571.16;5076550;28;20770;-85
2021/01/02 09:01:30;;;;;;;29.48;17.02;;;;;;;3.77;77.57;98579.91;5057730;28;20228;-86
2021/01/02 09:04:12;;;;;;;28.00;17.02;;;;;;;3.75;77.30;98580.91;5061698;28;20275;-86
2021/01/02 09:06:43;;;;;;;29.30;16.75;;;;;;;3.63;77.70;98579.72;5045634;28;20247;-85
2021/01/02 09:09:09;;;;;;;27.15;14.93;;;;;;;3.74;77.88;98579.19;5054350;28;20228;-86
2021/01/02 09:11:51;;;;;;;29.80;16.60;;;;;;;3.56;78.06;98572.09;5090041;28;20196;-85
2021/01/02 09:14:20;;;;;;;27.65;16.80;;;;;;;3.53;78.28;98567.75;5070242;28;20248;-85
2021/01/02 09:17:07;;;;;;;27.23;16.42;;;;;;;3.56;78.28;98570.31;5031484;28;20217;-86
2021/01/02 09:19:33;;;;;;;26.50;16.23;;;;;;;3.50;78.19;98570.59;5064615;28;20697;-86
2021/01/02 09:21:59;;;;;;;28.40;16.90;;;;;;;3.64;77.77;98577.91;5057141;28;20590;-84
2021/01/02 09:24:29;;;;;;;34.15;18.70;;;;;;;3.39;78.45;98575.53;5041903;28;20216;-85
2021/01/02 09:26:55;;;;;;;35.20;17.17;;;;;;;3.57;78.59;98574.69;5056476;28;20216;-85
2021/01/02 09:29:21;;;;;;;28.52;18.65;;;;;;;3.71;78.40;98579.31;5077084;28;20223;-85
2021/01/02 09:31:47;;;;;;;29.00;16.27;;;;;;;3.77;78.32;98579.91;5050068;28;20216;-85
2021/01/02 09:34:13;;;;;;;31.40;16.65;;;;;;;3.98;77.40;98578.03;5071993;28;20234;-86
2021/01/02 09:36:42;;;;;;;31.83;18.17;;;;;;;3.87;77.54;98575.91;5083562;28;20270;-83
2021/01/02 09:39:09;;;;;;;26.40;16.92;;;;;;;3.95;77.83;98573.72;5068615;28;20288;-86
2021/01/02 09:41:36;;;;;;;27.17;17.23;;;;;;;4.07;77.66;98574.94;5085182;28;20197;-81
2021/01/02 09:44:03;;;;;;;31.92;17.67;;;;;;;4.00;77.16;98574.38;5037896;28;20220;-83
2021/01/02 09:47:10;;;;;;;33.55;19.27;;;;;;;4.20;76.28;98582.25;5064665;28;20740;-87
2021/01/02 09:49:37;;;;;;;28.48;18.30;;;;;;;4.12;76.71;98581.72;5051423;28;20227;-85
2021/01/02 09:52:18;;;;;;;28.17;19.05;;;;;;;4.20;77.01;98589.34;5065020;28;20236;-84
2021/01/02 09:54:47;;;;;;;31.33;19.15;;;;;;;4.33;76.74;98582.50;5062801;28;20216;-85
2021/01/02 09:57:13;;;;;;;35.95;19.00;;;;;;;4.50;75.55;98582.53;5058599;28;20311;-85
2021/01/02 09:59:46;;;;;;;33.10;18.63;;;;;;;4.45;75.31;98579.22;5059368;28;20272;-86
2021/01/02 10:02:12;;;;;;;33.70;19.50;;;;;;;4.36;74.70;98580.53;5040369;28;20225;-86
2021/01/02 10:04:48;;;;;;;29.65;19.45;;;;;;;4.25;74.86;98577.53;5041101;28;20217;-85
2021/01/02 10:07:20;;;;;;;35.33;19.27;;;;;;;4.62;74.70;98569.44;5052913;28;20295;-85
2021/01/02 10:09:47;;;;;;;33.58;19.52;;;;;;;4.60;74.12;98560.69;5067939;28;20227;-83
2021/01/02 10:12:15;;;;;;;32.30;19.30;;;;;;;4.90;73.33;98561.78;5089098;28;20385;-80
2021/01/02 10:14:42;;;;;;;32.72;18.90;;;;;;;5.14;72.44;98559.63;5041281;28;20201;-84
2021/01/02 10:17:09;;;;;;;29.08;18.40;;;;;;;5.00;72.55;98555.00;5066253;28;20588;-83
2021/01/02 10:19:35;;;;;;;29.52;18.15;;;;;;;4.51;74.16;98561.16;5047800;28;20220;-82
2021/01/02 10:22:03;;;;;;;31.25;17.80;;;;;;;4.22;75.09;98563.53;5049366;28;20288;-82
2021/01/02 10:24:30;;;;;;;26.40;17.20;;;;;;;4.32;75.01;98560.34;5077699;28;20208;-80
2021/01/02 10:26:56;;;;;;;30.88;19.15;;;;;;;4.49;75.00;98555.03;5043125;28;20216;-82
2021/01/02 10:29:24;;;;;;;30.58;18.70;;;;;;;4.79;73.81;98541.94;5074973;28;20223;-79
2021/01/02 10:31:50;;;;;;;30.88;19.48;;;;;;;4.77;73.23;98541.19;5070779;28;20216;-80
2021/01/02 10:34:17;;;;;;;30.35;19.77;;;;;;;4.91;73.31;98536.88;5069680;28;20291;-84
2021/01/02 10:36:46;;;;;;;30.05;19.55;;;;;;;5.03;72.87;98546.88;5075244;28;20283;-79
2021/01/02 10:39:13;;;;;;;34.67;18.90;;;;;;;5.03;72.73;98544.22;5070788;28;20200;-78
2021/01/02 10:41:39;;;;;;;32.92;18.77;;;;;;;5.06;72.44;98541.38;5072691;28;20187;-79
2021/01/02 10:44:06;;;;;;;26.80;16.17;;;;;;;5.12;70.90;98546.38;5070181;28;20208;-78
2021/01/02 10:46:32;;;;;;;25.65;17.10;;;;;;;5.07;70.61;98543.09;5083348;28;20207;-78
2021/01/02 10:48:58;;;;;;;24.85;16.45;;;;;;;5.08;70.42;98542.13;5086256;28;20204;-79
2021/01/02 10:51:30;;;;;;;30.63;19.17;;;;;;;5.09;70.34;98548.34;5058184;28;20288;-80
2021/01/02 10:53:56;;;;;;;24.08;16.83;;;;;;;5.02;68.83;98545.16;5069044;28;20196;-83
2021/01/02 10:56:22;;;;;;;27.27;16.55;;;;;;;5.24;68.71;98536.84;5056674;28;20192;-82
2021/01/02 10:58:48;;;;;;;27.40;16.05;;;;;;;5.22;68.63;98538.75;5055585;28;20225;-82
2021/01/02 11:01:14;;;;;;;22.40;14.65;;;;;;;4.98;68.90;98535.59;5077524;28;20208;-80
2021/01/02 11:03:40;;;;;;;24.92;15.40;;;;;;;4.92;68.90;98543.91;5060568;28;20216;-79
2021/01/02 11:06:13;;;;;;;22.27;14.10;;;;;;;4.84;68.30;98538.13;5048073;28;20242;-81
2021/01/02 11:08:41;;;;;;;23.67;15.93;;;;;;;4.95;68.81;98538.41;5048513;28;20220;-80
2021/01/02 11:11:08;;;;;;;25.67;16.65;;;;;;;5.11;68.25;98536.66;5063582;28;20221;-83
2021/01/02 11:13:36;;;;;;;21.02;14.43;;;;;;;5.09;68.90;98535.91;5050829;28;20219;-82
2021/01/02 11:16:02;;;;;;;23.17;14.98;;;;;;;5.17;68.25;98532.81;5056146;28;20229;-82
2021/01/02 11:18:29;;;;;;;24.45;16.02;;;;;;;5.02;68.70;98529.19;5076761;28;20215;-81
2021/01/02 11:20:56;;;;;;;26.75;14.73;;;;;;;5.28;68.68;98525.97;5070213;28;20200;-83
2021/01/02 11:23:23;;;;;;;25.13;15.52;;;;;;;5.34;68.26;98528.31;5059223;28;20204;-84
2021/01/02 11:25:49;;;;;;;22.95;14.23;;;;;;;5.23;67.97;98522.69;5054167;28;20216;-83
2021/01/02 11:28:15;;;;;;;22.95;14.27;;;;;;;5.35;67.75;98511.38;5065260;28;20230;-82
2021/01/02 11:30:41;;;;;;;21.55;14.30;;;;;;;5.44;67.55;98518.84;5061241;28;20210;-81
2021/01/02 11:33:07;;;;;;;20.48;14.23;;;;;;;5.36;67.60;98518.41;5067062;28;20202;-82
2021/01/02 11:35:33;;;;;;;23.67;15.07;;;;;;;5.26;67.81;98506.53;5084632;28;20196;-83
2021/01/02 11:38:00;;;;;;;21.45;14.02;;;;;;;5.42;67.59;98514.53;5052670;28;20223;-82
2021/01/02 11:40:26;;;;;;;23.45;15.23;;;;;;;5.39;67.93;98518.22;5054279;28;20228;-81
2021/01/02 11:42:54;;;;;;;23.73;14.70;;;;;;;5.12;68.42;98509.06;5051615;28;20255;-82
2021/01/02 11:45:22;;;;;;;21.83;14.95;;;;;;;5.26;68.42;98513.69;5057894;28;20323;-82
2021/01/02 11:47:48;;;;;;;23.33;15.52;;;;;;;5.27;68.61;98515.38;5053695;28;20306;-81